createdAt,value
2022-08-05T00:00:35.319Z,24.50
2022-08-05T00:03:15.641Z,24.40
2022-08-05T00:06:06.450Z,24.30
2022-08-05T00:08:34.624Z,24.30
2022-08-05T00:11:28.080Z,24.40
2022-08-05T00:13:58.860Z,24.40
2022-08-05T00:16:36.365Z,24.40
2022-08-05T00:19:15.481Z,24.40
2022-08-05T00:21:43.506Z,24.40
2022-08-05T00:24:18.996Z,24.40
2022-08-05T00:26:54.059Z,24.40
2022-08-05T00:29:25.525Z,24.50
2022-08-05T00:32:13.413Z,24.40
2022-08-05T00:35:04.538Z,24.30
2022-08-05T00:37:51.285Z,24.20
2022-08-05T00:40:28.045Z,24.10
2022-08-05T00:43:00.558Z,24.00
2022-08-05T00:45:42.930Z,24.00
2022-08-05T00:48:14.506Z,23.90
2022-08-05T00:50:46.575Z,23.80
2022-08-05T00:54:00.001Z,23.70
2022-08-05T00:56:05.513Z,23.60
2022-08-05T00:58:37.700Z,23.60
2022-08-05T01:01:09.036Z,23.50
2022-08-05T01:03:38.052Z,23.40
2022-08-05T01:06:06.839Z,23.40
2022-08-05T01:08:44.269Z,23.30
2022-08-05T01:11:22.163Z,23.40
2022-08-05T01:14:08.710Z,23.30
2022-08-05T01:16:49.039Z,23.40
2022-08-05T01:20:01.822Z,23.40
2022-08-05T01:22:47.002Z,23.30
2022-08-05T01:25:58.995Z,23.30
2022-08-05T01:28:36.304Z,23.30
2022-08-05T01:31:13.045Z,23.30
2022-08-05T01:33:53.760Z,23.30
2022-08-05T01:36:28.637Z,23.30
2022-08-05T01:39:00.395Z,23.20
2022-08-05T01:41:35.576Z,23.30
2022-08-05T01:44:09.723Z,23.20
2022-08-05T01:46:43.111Z,23.20
2022-08-05T01:49:24.357Z,23.10
2022-08-05T01:51:59.791Z,23.10
2022-08-05T01:54:45.884Z,23.10
2022-08-05T01:58:12.462Z,23.10
2022-08-05T02:00:11.926Z,23.10
2022-08-05T02:02:54.467Z,23.00
2022-08-05T02:05:29.277Z,23.10
2022-08-05T02:08:01.249Z,23.10
2022-08-05T02:10:38.039Z,23.10
2022-08-05T02:13:16.587Z,23.00
2022-08-05T02:15:51.904Z,22.90
2022-08-05T02:18:31.818Z,22.80
2022-08-05T02:21:15.103Z,22.70
2022-08-05T02:23:47.615Z,22.70
2022-08-05T02:26:24.400Z,22.70
2022-08-05T02:28:58.236Z,22.70
2022-08-05T02:31:35.028Z,22.60
2022-08-05T02:34:10.104Z,22.50
2022-08-05T02:36:46.571Z,22.50
2022-08-05T02:39:21.424Z,22.40
2022-08-05T02:42:00.457Z,22.40
2022-08-05T02:44:31.810Z,22.30
2022-08-05T02:47:02.890Z,22.30
2022-08-05T02:49:37.909Z,22.20
2022-08-05T02:52:29.677Z,22.20
2022-08-05T02:55:02.084Z,22.20
2022-08-05T02:58:12.295Z,22.10
2022-08-05T03:00:26.122Z,22.10
2022-08-05T03:02:59.768Z,22.10
2022-08-05T03:06:56.226Z,22.00
2022-08-05T03:08:19.591Z,22.00
2022-08-05T03:11:55.692Z,22.00
2022-08-05T03:13:52.019Z,22.00
2022-08-05T03:16:31.746Z,22.00
2022-08-05T03:19:01.378Z,21.90
2022-08-05T03:21:41.612Z,21.80
2022-08-05T03:24:30.228Z,21.80
2022-08-05T03:26:59.681Z,21.80
2022-08-05T03:29:45.837Z,21.80
2022-08-05T03:32:17.616Z,21.80
2022-08-05T03:34:50.474Z,21.80
2022-08-05T03:37:21.707Z,21.80
2022-08-05T03:40:01.626Z,21.80
2022-08-05T03:42:41.667Z,21.70
2022-08-05T03:45:21.490Z,21.70
2022-08-05T03:47:51.727Z,21.70
2022-08-05T03:50:30.190Z,21.70
2022-08-05T03:54:59.276Z,21.70
2022-08-05T03:56:11.002Z,21.70
2022-08-05T03:58:46.913Z,21.70
2022-08-05T04:01:20.820Z,21.70
2022-08-05T04:04:09.179Z,21.80
2022-08-05T04:06:47.428Z,21.80
2022-08-05T04:09:25.860Z,22.00
2022-08-05T04:11:56.791Z,22.00
2022-08-05T04:14:30.437Z,22.00
2022-08-05T04:17:00.914Z,22.10
2022-08-05T04:19:31.823Z,22.10
2022-08-05T04:22:08.561Z,22.10
2022-08-05T04:24:44.025Z,22.20
2022-08-05T04:27:14.152Z,22.20
2022-08-05T04:29:43.858Z,22.20
2022-08-05T04:32:13.332Z,22.30
2022-08-05T04:34:43.752Z,22.30
2022-08-05T04:37:13.196Z,22.40
2022-08-05T04:39:41.442Z,22.50
2022-08-05T04:42:10.327Z,22.70
2022-08-05T04:44:39.136Z,22.80
2022-08-05T04:47:08.817Z,22.80
2022-08-05T04:50:01.308Z,23.00
2022-08-05T04:52:28.995Z,23.00
2022-08-05T04:54:57.973Z,23.00
2022-08-05T04:57:37.298Z,23.00
2022-08-05T05:00:06.810Z,23.00
2022-08-05T05:02:41.813Z,22.90
2022-08-05T05:05:16.706Z,23.00
2022-08-05T05:08:01.489Z,23.00
2022-08-05T05:10:30.861Z,23.50
2022-08-05T05:13:03.975Z,24.20
2022-08-05T05:15:57.437Z,24.90
2022-08-05T05:18:28.720Z,25.30
2022-08-05T05:21:01.509Z,25.70
2022-08-05T05:24:02.029Z,25.60
2022-08-05T05:26:19.330Z,25.70
2022-08-05T05:28:47.407Z,25.40
2022-08-05T05:31:15.634Z,25.10
2022-08-05T05:33:59.551Z,24.70
2022-08-05T05:36:30.084Z,24.50
2022-08-05T05:38:59.771Z,24.40
2022-08-05T05:41:39.977Z,24.30
2022-08-05T05:44:35.525Z,24.20
2022-08-05T05:46:58.028Z,24.20
2022-08-05T05:49:26.650Z,24.30
2022-08-05T05:51:54.910Z,24.20
2022-08-05T05:54:35.471Z,24.30
2022-08-05T05:57:13.851Z,24.30
2022-08-05T05:59:47.371Z,24.30
2022-08-05T06:02:17.357Z,24.30
2022-08-05T06:05:01.283Z,24.50
2022-08-05T06:07:41.391Z,24.70
2022-08-05T06:10:12.661Z,24.90
2022-08-05T06:12:42.298Z,25.10
2022-08-05T06:15:16.395Z,25.20
2022-08-05T06:17:54.578Z,25.20
2022-08-05T06:20:23.115Z,25.00
2022-08-05T06:22:51.213Z,24.90
2022-08-05T06:25:59.040Z,24.70
2022-08-05T06:28:12.353Z,24.60
2022-08-05T06:30:49.714Z,24.30
2022-08-05T06:33:19.535Z,24.20
2022-08-05T06:36:03.731Z,24.00
2022-08-05T06:38:37.679Z,23.80
2022-08-05T06:41:07.906Z,23.60
2022-08-05T06:43:57.742Z,23.20
2022-08-05T06:46:30.174Z,22.90
2022-08-05T06:48:59.723Z,22.70
2022-08-05T06:51:30.928Z,22.60
2022-08-05T06:54:01.986Z,22.50
2022-08-05T06:56:34.833Z,22.50
2022-08-05T06:59:04.006Z,22.50
2022-08-05T07:01:40.736Z,22.50
2022-08-05T07:04:10.887Z,22.60
2022-08-05T07:06:42.208Z,22.70
2022-08-05T07:09:10.238Z,22.90
2022-08-05T07:11:40.057Z,23.10
2022-08-05T07:14:29.479Z,23.10
2022-08-05T07:17:59.397Z,23.20
2022-08-05T07:20:34.025Z,23.40
2022-08-05T07:22:38.792Z,23.50
2022-08-05T07:25:53.943Z,23.70
2022-08-05T07:28:03.825Z,23.90
2022-08-05T07:30:38.166Z,24.10
2022-08-05T07:33:10.411Z,24.20
2022-08-05T07:36:01.878Z,24.20
2022-08-05T07:38:43.328Z,24.20
2022-08-05T07:42:14.488Z,24.30
2022-08-05T07:44:14.336Z,24.50
2022-08-05T07:46:49.269Z,24.60
2022-08-05T07:49:18.957Z,24.70
2022-08-05T07:51:52.982Z,24.90
2022-08-05T07:54:31.169Z,24.90
2022-08-05T07:57:14.538Z,25.00
2022-08-05T07:59:53.660Z,24.90
2022-08-05T08:02:31.378Z,25.00
2022-08-05T08:05:15.084Z,25.00
2022-08-05T08:07:59.762Z,25.30
2022-08-05T08:10:29.273Z,25.40
2022-08-05T08:12:58.770Z,25.60
2022-08-05T08:16:34.531Z,25.70
2022-08-05T08:18:20.932Z,25.90
2022-08-05T08:21:02.548Z,25.80
2022-08-05T08:24:02.399Z,25.90
2022-08-05T08:26:29.453Z,25.90
2022-08-05T08:29:09.775Z,25.90
2022-08-05T08:31:50.096Z,25.70
2022-08-05T08:34:18.961Z,25.40
2022-08-05T08:37:04.617Z,25.60
2022-08-05T08:39:37.519Z,25.60
2022-08-05T08:42:34.127Z,25.90
2022-08-05T08:45:18.348Z,26.10
2022-08-05T08:48:11.778Z,26.20
2022-08-05T08:51:03.615Z,26.00
2022-08-05T08:53:44.359Z,25.80
2022-08-05T08:56:13.733Z,25.60
2022-08-05T08:58:48.583Z,25.30
2022-08-05T09:01:18.400Z,25.20
2022-08-05T09:03:55.611Z,25.10
2022-08-05T09:06:30.056Z,25.10
2022-08-05T09:09:01.647Z,25.20
2022-08-05T09:11:52.940Z,25.40
2022-08-05T09:14:59.129Z,25.70
2022-08-05T09:17:39.919Z,26.00
2022-08-05T09:20:05.162Z,26.20
2022-08-05T09:23:09.216Z,26.20
2022-08-05T09:26:01.419Z,26.30
2022-08-05T09:28:31.509Z,26.60
2022-08-05T09:31:22.571Z,26.70
2022-08-05T09:33:58.499Z,26.90
2022-08-05T09:36:45.741Z,26.90
2022-08-05T09:39:27.709Z,26.90
2022-08-05T09:42:11.416Z,27.10
2022-08-05T09:44:50.567Z,27.20
2022-08-05T09:47:22.275Z,27.10
2022-08-05T09:50:01.297Z,27.20
2022-08-05T09:52:34.823Z,27.20
2022-08-05T09:55:56.749Z,27.20
2022-08-05T09:57:58.662Z,27.40
2022-08-05T10:00:29.600Z,27.40
2022-08-05T10:02:59.365Z,27.70
2022-08-05T10:05:32.740Z,28.20
2022-08-05T10:08:35.000Z,28.30
2022-08-05T10:10:54.912Z,28.60
2022-08-05T10:13:47.386Z,28.70
2022-08-05T10:16:41.553Z,28.70
2022-08-05T10:19:13.618Z,28.90
2022-08-05T10:21:42.135Z,29.00
2022-08-05T10:24:13.959Z,28.90
2022-08-05T10:26:49.098Z,28.90
2022-08-05T10:29:23.657Z,28.90
2022-08-05T10:32:52.053Z,28.80
2022-08-05T10:34:41.137Z,28.50
2022-08-05T10:37:09.569Z,28.20
2022-08-05T10:39:59.236Z,27.80
2022-08-05T10:42:38.328Z,27.70
2022-08-05T10:45:23.965Z,27.70
2022-08-05T10:48:52.831Z,27.90
2022-08-05T10:51:28.790Z,28.20
2022-08-05T10:54:01.763Z,28.30
2022-08-05T10:56:49.283Z,28.40
2022-08-05T11:00:03.522Z,28.30
2022-08-05T11:02:14.685Z,28.40
2022-08-05T11:04:58.687Z,28.50
2022-08-05T11:07:33.316Z,28.40
2022-08-05T11:10:27.496Z,28.50
2022-08-05T11:12:58.334Z,28.50
2022-08-05T11:15:59.157Z,28.50
2022-08-05T11:18:30.031Z,28.50
2022-08-05T11:21:02.568Z,28.50
2022-08-05T11:24:05.353Z,28.60
2022-08-05T11:26:28.189Z,28.50
2022-08-05T11:29:12.867Z,28.50
2022-08-05T11:31:57.290Z,28.60
2022-08-05T11:34:47.503Z,28.40
2022-08-05T11:38:28.116Z,28.40
2022-08-05T11:41:35.638Z,28.20
2022-08-05T11:44:06.621Z,28.30
2022-08-05T11:46:58.143Z,28.30
2022-08-05T11:49:29.328Z,28.30
2022-08-05T11:52:08.406Z,28.30
2022-08-05T11:54:41.415Z,28.40
2022-08-05T11:57:24.403Z,28.50
2022-08-05T11:59:54.742Z,28.60
2022-08-05T12:02:32.976Z,28.70
2022-08-05T12:05:06.838Z,28.80
2022-08-05T12:08:10.443Z,28.90
2022-08-05T12:10:43.092Z,28.90
2022-08-05T12:13:27.908Z,29.00
2022-08-05T12:16:15.699Z,29.20
2022-08-05T12:18:48.928Z,29.30
2022-08-05T12:21:26.965Z,29.40
2022-08-05T12:24:04.746Z,29.40
2022-08-05T12:26:35.582Z,29.30
2022-08-05T12:29:09.830Z,29.30
2022-08-05T12:31:49.757Z,29.10
2022-08-05T12:34:28.136Z,29.00
2022-08-05T12:36:58.062Z,28.70
2022-08-05T12:39:37.460Z,28.60
2022-08-05T12:42:14.945Z,28.40
2022-08-05T12:44:45.305Z,28.40
2022-08-05T12:47:25.554Z,28.40
2022-08-05T12:50:04.464Z,28.60
2022-08-05T12:52:42.008Z,28.80
2022-08-05T12:55:26.166Z,29.10
2022-08-05T12:58:49.933Z,29.30
2022-08-05T13:02:03.140Z,29.60
2022-08-05T13:03:42.329Z,30.00
2022-08-05T13:06:17.834Z,30.10
2022-08-05T13:08:52.401Z,30.20
2022-08-05T13:12:01.781Z,30.20
2022-08-05T13:14:24.870Z,30.50
2022-08-05T13:17:10.406Z,30.50
2022-08-05T13:19:51.839Z,30.60
2022-08-05T13:22:29.201Z,30.70
2022-08-05T13:25:00.878Z,30.80
2022-08-05T13:27:38.522Z,30.60
2022-08-05T13:30:33.536Z,30.40
2022-08-05T13:33:01.701Z,30.20
2022-08-05T13:35:47.435Z,30.00
2022-08-05T13:38:31.076Z,29.80
2022-08-05T13:41:04.800Z,29.60
2022-08-05T13:43:45.377Z,29.50
2022-08-05T13:47:01.658Z,29.50
2022-08-05T13:49:11.742Z,29.60
2022-08-05T13:51:46.481Z,30.00
2022-08-05T13:54:21.198Z,30.20
2022-08-05T13:56:53.473Z,30.60
2022-08-05T13:59:25.095Z,30.70
2022-08-05T14:01:56.559Z,30.70
2022-08-05T14:04:49.431Z,30.50
2022-08-05T14:07:25.605Z,30.40
2022-08-05T14:10:13.205Z,30.30
2022-08-05T14:12:42.843Z,30.20
2022-08-05T14:16:04.519Z,30.10
2022-08-05T14:18:01.290Z,30.20
2022-08-05T14:20:30.690Z,30.10
2022-08-05T14:22:59.054Z,30.10
2022-08-05T14:25:30.077Z,30.00
2022-08-05T14:27:58.874Z,29.90
2022-08-05T14:30:28.357Z,29.90
2022-08-05T14:32:58.657Z,30.00
2022-08-05T14:35:37.507Z,30.00
2022-08-05T14:38:27.682Z,30.10
2022-08-05T14:41:06.149Z,30.10
2022-08-05T14:44:02.551Z,30.10
2022-08-05T14:46:27.210Z,30.00
2022-08-05T14:49:04.195Z,29.90
2022-08-05T14:51:36.189Z,29.80
2022-08-05T14:54:27.747Z,29.70
2022-08-05T14:56:57.049Z,29.70
2022-08-05T14:59:29.239Z,29.70
2022-08-05T15:02:03.542Z,29.90
2022-08-05T15:04:43.772Z,30.10
2022-08-05T15:08:05.775Z,30.30
2022-08-05T15:10:01.554Z,30.30
2022-08-05T15:12:51.391Z,30.10
2022-08-05T15:15:54.334Z,30.10
2022-08-05T15:18:08.899Z,29.90
2022-08-05T15:20:37.050Z,29.90
2022-08-05T15:23:06.718Z,29.80
2022-08-05T15:25:40.920Z,29.60
2022-08-05T15:28:23.023Z,29.20
2022-08-05T15:30:55.999Z,28.20
2022-08-05T15:34:04.496Z,27.60
2022-08-05T15:36:17.357Z,27.00
2022-08-05T15:40:41.182Z,26.70
2022-08-05T15:41:55.158Z,26.20
2022-08-05T15:44:26.110Z,25.70
2022-08-05T15:46:55.919Z,25.60
2022-08-05T15:49:55.097Z,25.50
2022-08-05T15:52:16.302Z,25.40
2022-08-05T15:54:45.247Z,25.20
2022-08-05T15:57:14.624Z,25.00
2022-08-05T15:59:45.676Z,24.70
2022-08-05T16:02:14.919Z,24.60
2022-08-05T16:04:54.895Z,24.50
2022-08-05T16:07:23.099Z,24.30
2022-08-05T16:09:52.121Z,24.00
2022-08-05T16:12:22.396Z,23.80
2022-08-05T16:14:53.008Z,23.70
2022-08-05T16:17:21.082Z,23.70
2022-08-05T16:20:11.773Z,23.50
2022-08-05T16:22:37.321Z,23.50
2022-08-05T16:25:09.535Z,23.20
2022-08-05T16:28:00.670Z,23.00
2022-08-05T16:30:29.370Z,22.90
2022-08-05T16:32:57.728Z,22.70
2022-08-05T16:35:28.592Z,22.40
2022-08-05T16:38:15.096Z,22.30
2022-08-05T16:40:51.905Z,22.10
2022-08-05T16:43:24.712Z,22.00
2022-08-05T16:46:04.578Z,21.90
2022-08-05T16:48:37.471Z,21.80
2022-08-05T16:51:09.034Z,21.70
2022-08-05T16:54:03.296Z,21.60
2022-08-05T16:56:30.058Z,21.60
2022-08-05T16:59:01.013Z,21.50
2022-08-05T17:01:54.109Z,21.50
2022-08-05T17:04:26.459Z,21.40
2022-08-05T17:06:57.007Z,21.50
2022-08-05T17:09:29.914Z,21.50
2022-08-05T17:11:59.703Z,21.40
2022-08-05T17:14:37.102Z,21.40
2022-08-05T17:17:14.184Z,21.40
2022-08-05T17:19:45.496Z,21.50
2022-08-05T17:22:24.791Z,21.50
2022-08-05T17:24:57.730Z,21.50
2022-08-05T17:27:33.354Z,21.50
2022-08-05T17:30:07.108Z,21.50
2022-08-05T17:36:07.998Z,21.50
2022-08-05T17:38:23.509Z,21.30
2022-08-05T17:40:51.533Z,21.20
2022-08-05T17:43:47.138Z,21.20
2022-08-05T17:46:10.296Z,21.20
2022-08-05T17:48:39.919Z,21.10
2022-08-05T17:51:13.251Z,21.00
2022-08-05T17:53:54.525Z,21.00
2022-08-05T17:56:23.119Z,20.90
2022-08-05T17:58:56.744Z,20.90
2022-08-05T18:01:24.923Z,20.90
2022-08-05T18:04:03.837Z,20.80
2022-08-05T18:06:32.906Z,20.80
2022-08-05T18:09:03.648Z,20.80
2022-08-05T18:11:33.221Z,20.80
2022-08-05T18:14:04.258Z,20.80
2022-08-05T18:16:35.135Z,20.70
2022-08-05T18:19:16.419Z,20.60
2022-08-05T18:22:09.645Z,20.50
2022-08-05T18:24:32.608Z,20.50
2022-08-05T18:27:01.152Z,20.40
2022-08-05T18:29:40.482Z,20.50
2022-08-05T18:32:12.905Z,20.50
2022-08-05T18:34:43.148Z,20.40
2022-08-05T18:37:12.578Z,20.50
2022-08-05T18:40:34.157Z,20.40
2022-08-05T18:42:47.891Z,20.40
2022-08-05T18:45:15.981Z,20.30
2022-08-05T18:47:44.566Z,20.30
2022-08-05T18:50:44.982Z,20.30
2022-08-05T18:53:22.859Z,20.30
2022-08-05T18:55:53.185Z,20.20
2022-08-05T18:58:28.607Z,20.20
2022-08-05T19:00:57.464Z,20.20
2022-08-05T19:03:53.342Z,20.10
2022-08-05T19:06:22.034Z,20.10
2022-08-05T19:09:02.343Z,20.00
2022-08-05T19:11:59.315Z,20.00
2022-08-05T19:14:44.752Z,20.00
2022-08-05T19:17:11.381Z,19.90
2022-08-05T19:19:46.647Z,19.90
2022-08-05T19:22:18.571Z,19.90
2022-08-05T19:24:54.298Z,19.90
2022-08-05T19:27:27.950Z,19.90
2022-08-05T19:29:58.833Z,20.00
2022-08-05T19:32:27.821Z,20.00
2022-08-05T19:34:56.651Z,20.00
2022-08-05T19:37:35.026Z,20.00
2022-08-05T19:40:16.468Z,20.00
2022-08-05T19:43:04.510Z,20.10
2022-08-05T19:45:36.759Z,20.00
2022-08-05T19:48:06.470Z,20.10
2022-08-05T19:50:35.741Z,20.10
2022-08-05T19:53:09.517Z,20.00
2022-08-05T19:56:14.916Z,20.00
2022-08-05T19:58:29.642Z,19.90
2022-08-05T20:00:58.184Z,19.80
2022-08-05T20:03:29.266Z,19.70
2022-08-05T20:06:15.579Z,19.70
2022-08-05T20:09:06.273Z,19.70
2022-08-05T20:11:42.377Z,19.50
2022-08-05T20:14:26.637Z,19.60
2022-08-05T20:16:55.796Z,19.60
2022-08-05T20:19:24.712Z,19.50
2022-08-05T20:22:04.147Z,19.40
2022-08-05T20:24:34.352Z,19.40
2022-08-05T20:27:03.299Z,19.40
2022-08-05T20:29:39.672Z,19.40
2022-08-05T20:32:08.328Z,19.40
2022-08-05T20:34:38.532Z,19.40
2022-08-05T20:37:17.734Z,19.40
2022-08-05T20:39:53.903Z,19.40
2022-08-05T20:42:26.735Z,19.40
2022-08-05T20:44:56.489Z,19.40
2022-08-05T20:47:31.939Z,19.50
2022-08-05T20:50:02.117Z,19.40
2022-08-05T20:52:31.176Z,19.40
2022-08-05T20:55:55.293Z,19.40
2022-08-05T20:57:49.642Z,19.40
2022-08-05T21:00:49.615Z,19.40
2022-08-05T21:03:08.468Z,19.40
2022-08-05T21:05:53.551Z,19.30
2022-08-05T21:08:26.830Z,19.30
2022-08-05T21:11:09.165Z,19.30
2022-08-05T21:13:48.229Z,19.30
2022-08-05T21:16:29.729Z,19.30
2022-08-05T21:19:00.012Z,19.30
2022-08-05T21:21:44.328Z,19.20
2022-08-05T21:24:19.555Z,19.30
2022-08-05T21:26:58.437Z,19.20
2022-08-05T21:29:31.961Z,19.20
2022-08-05T21:32:02.334Z,19.10
2022-08-05T21:34:31.713Z,19.10
2022-08-05T21:37:01.589Z,19.10
2022-08-05T21:39:30.016Z,19.10
2022-08-05T21:42:01.075Z,19.10
2022-08-05T21:44:30.183Z,19.10
2022-08-05T21:46:59.268Z,19.00
2022-08-05T21:50:00.199Z,19.10
2022-08-05T21:52:26.787Z,19.00
2022-08-05T21:54:56.834Z,19.00
2022-08-05T21:57:33.738Z,19.10
2022-08-05T22:00:05.546Z,19.00
2022-08-05T22:02:35.560Z,18.90
2022-08-05T22:05:04.520Z,18.90
2022-08-05T22:07:54.154Z,19.00
2022-08-05T22:10:27.218Z,19.00
2022-08-05T22:12:57.824Z,18.90
2022-08-05T22:16:00.595Z,18.90
2022-08-05T22:18:15.820Z,18.90
2022-08-05T22:20:47.774Z,18.80
2022-08-05T22:24:03.330Z,18.70
2022-08-05T22:26:49.445Z,18.80
2022-08-05T22:29:26.905Z,18.80
2022-08-05T22:32:03.196Z,18.80
2022-08-05T22:34:32.208Z,18.70
2022-08-05T22:37:01.105Z,18.70
2022-08-05T22:39:34.333Z,18.70
2022-08-05T22:42:10.426Z,18.80
2022-08-05T22:44:48.342Z,18.80
2022-08-05T22:47:29.326Z,18.80
2022-08-05T22:50:18.158Z,18.70
2022-08-05T22:52:49.631Z,18.70
2022-08-05T22:55:22.072Z,18.70
2022-08-05T22:57:51.101Z,18.70
2022-08-05T23:00:23.587Z,18.80
2022-08-05T23:02:53.429Z,18.80
2022-08-05T23:05:23.627Z,18.80
2022-08-05T23:07:53.268Z,18.80
2022-08-05T23:10:23.546Z,18.80
2022-08-05T23:12:55.771Z,18.80
2022-08-05T23:15:29.269Z,18.80
2022-08-05T23:18:01.572Z,18.90
2022-08-05T23:20:33.191Z,18.80
2022-08-05T23:23:03.545Z,18.70
2022-08-05T23:25:51.178Z,18.70
2022-08-05T23:28:22.109Z,18.70
2022-08-05T23:30:54.700Z,18.60
2022-08-05T23:34:03.345Z,18.70
2022-08-05T23:36:13.783Z,18.60
2022-08-05T23:38:43.540Z,18.60
2022-08-05T23:41:12.797Z,18.60
2022-08-05T23:44:05.189Z,18.60
2022-08-05T23:46:31.103Z,18.50
2022-08-05T23:49:01.912Z,18.40
2022-08-05T23:52:01.834Z,18.40
2022-08-05T23:54:36.320Z,18.30
2022-08-05T23:57:07.325Z,18.20
